• Join FlightAware (Why Join?)
  • Login
  • US Flag 
05:43AM EST


 

Airport Tracker/Info


-or-


 

Live Flight TrackerFlight Track Log ✈ EJA982 ✈ 22-Jun-2013 ✈ KSFO - KSBA

Flight Track Log - Related Links

Times and Time Zones

All times are in EDT time to prevent confusion due to time zone crossing. See the EJA982 flight status page for this flight to view local times or setup timezone preferences in your user account.

Time Position Orientation Groundspeed Altitude Reporting Facility
EDT Latitude Longitude Course Direction KTS MPH feet Rate Location/Type
10:36PM 37.6303 -122.3967 295° West 172 198 29,000  Level Oakland Center
10:36PM 37.6500 -122.4500 295° West 244 281 3,300 -6,540 Descending Northern Cal TRACON
10:39PM 37.6039 -122.6133 250° West 273 314 9,300 2,640 Climbing Oakland Center
10:40PM 37.5236 -122.6256 187° South 297 342 12,400 2,580 Climbing Oakland Center
10:41PM 37.4311 -122.6156 175° South 332 382 14,600 1,860 Climbing Oakland Center
10:42PM 37.3261 -122.6042 175° South 375 432 16,300 1,920 Climbing Oakland Center
10:43PM 37.1939 -122.5914 176° South 396 456 18,600 2,100 Climbing Oakland Center
10:44PM 37.0828 -122.5825 176° South 401 461 20,600 1,920 Climbing Oakland Center
10:45PM 36.9700 -122.5675 174° South 407 468 22,600 1,860 Climbing Oakland Center
10:46PM 36.8767 -122.4803 143° Southeast 421 484 24,400 1,620 Climbing Oakland Center
10:47PM 36.7836 -122.3836 140° Southeast 435 501 25,900 1,380 Climbing Oakland Center
10:48PM 36.6875 -122.2825 140° Southeast 450 518 27,300 1,200 Climbing Oakland Center
10:49PM 36.5881 -122.1778 140° Southeast 465 535 28,400 780 Climbing Oakland Center
10:50PM 36.4836 -122.0706 140° Southeast 481 554 29,000 240 Climbing Oakland Center
10:51PM 36.3764 -121.9581 140° Southeast 499 574 29,000  Level Oakland Center
10:52PM 36.2669 -121.8411 139° Southeast 513 590 29,000  Level Oakland Center
10:53PM 36.1578 -121.7264 140° Southeast 519 597 29,000  Level Oakland Center
10:54PM 36.0228 -121.5889 141° Southeast 523 602 29,000  Level Oakland Center
10:55PM 35.9108 -121.4733 140° Southeast 524 603 29,000  Level Oakland Center
10:56PM 35.7989 -121.3597 141° Southeast 525 604 29,000  Level Oakland Center
10:57PM 35.6869 -121.2453 140° Southeast 524 603 29,000 -540 Level Oakland Center
10:58PM 35.5744 -121.1314 141° Southeast 525 604 28,000 -1,680 Descending Oakland Center
10:59PM 35.4656 -121.0200 140° Southeast 518 596 25,700 -2,040 Descending Oakland Center
11:00PM 35.3611 -120.9158 141° Southeast 499 574 24,000 -960 Descending Oakland Center
11:01PM 35.2600 -120.8147 141° Southeast 481 554 23,800 -1,320 Descending Oakland Center
11:02PM 35.1600 -120.7139 140° Southeast 474 545 21,400 -2,340 Descending Oakland Center
11:03PM 35.0589 -120.6114 140° Southeast 476 548 19,100 -2,640 Descending Oakland Center
11:04PM 34.9422 -120.4947 141° Southeast 463 533 16,100 -2,460 Descending Oakland Center
11:05PM 34.8564 -120.4103 141° Southeast 451 519 14,200 -1,860 Descending Oakland Center
11:06PM 34.7756 -120.3317 141° Southeast 364 419 12,600 -1,740 Descending Los Angeles Center
11:07PM 34.6983 -120.2647 145° Southeast 322 371 10,900 -1,680 Descending Los Angeles Center
11:08PM 34.6319 -120.2078 145° Southeast 302 348 9,300 -960 Descending Los Angeles Center
11:09PM 34.5625 -120.1464 144° Southeast 294 338 9,000 -840 Descending Los Angeles Center
11:10PM 34.4986 -120.0911 145° Southeast 290 334 7,600 -1,620 Descending Los Angeles Center
11:11PM 34.4314 -120.0319 144° Southeast 285 328 5,800 -1,740 Descending Los Angeles Center
11:12PM 34.3892 -119.9672 128° Southeast 261 300 4,100 -1,680 Descending Los Angeles Center
11:13PM 34.3758 -119.8881 102° East 238 274 2,500 -1,080 Descending Los Angeles Center
11:14PM 34.3725 -119.8136 93° East 215 247 2,000 -720 Descending Los Angeles Center
11:15PM 34.4092 -119.7942 24° Northeast 179 206 1,100 -720 Descending Los Angeles Center
11:17PM 34.4447 -119.8458 310° West 169 194 200 -600 Descending Los Angeles Center